Terminal Aerodrome Forecast
Issued by NWS

Home | Current Version | Previous Version | Text Only | Print | Product List | Glossary On
Versions: 1 2 3 4 5 6 7 8 9 10 11 12 13 14 15 16 17 18 19 20 21 22 23 24 25 26 27 28 29 30 31 32 33 34 35
625
FTUS46 KMTR 222338
TAFSFO
TAF
KSFO 222338Z 2300/2406 27020G28KT P6SM FEW030 FEW080 FEW100
     FM230400 27016G24KT P6SM FEW030
     FM230900 27010KT P6SM FEW020
     FM231200 28006KT P6SM SCT020
     FM231900 27008KT P6SM FEW020
     FM232200 25011KT P6SM SCT200
     FM240400 16006KT P6SM BKN150=

USA.gov is the U.S. government's official web portal to all federal, state and local government web resources and services.